Time;durP1;ratioP1;P1;durP2;ratioP2;P2;SDS_P1;SDS_P2;PMS_P1;PMS_P2;Temp;Humidity;BMP_temperature;BMP_pressure;BME280_temperature;BME280_humidity;BME280_pressure;Samples;Min_cycle;Max_cycle;Signal;HPM_P1;HPM_P2
2021/11/12 00:14:48;;;;;;;95.90;41.85;;;;;;;9.23;100.00;102261.84;10194113;28;20072;-69
2021/11/12 00:19:46;;;;;;;90.72;38.15;;;;;;;9.23;100.00;102259.09;10200986;28;20471;-68
2021/11/12 00:24:43;;;;;;;82.28;36.53;;;;;;;9.19;100.00;102252.53;10193327;28;20095;-69
2021/11/12 00:29:45;;;;;;;76.65;33.75;;;;;;;9.13;100.00;102248.19;10209101;28;20075;-69
2021/11/12 00:35:04;;;;;;;81.13;34.10;;;;;;;9.12;100.00;102241.06;10193131;28;20079;-68
2021/11/12 00:40:06;;;;;;;81.10;34.35;;;;;;;9.04;100.00;102237.78;10191627;28;20088;-69
2021/11/12 00:45:04;;;;;;;89.32;36.90;;;;;;;9.04;100.00;102235.06;10205540;28;20119;-70
2021/11/12 00:55:04;;;;;;;93.38;38.00;;;;;;;9.04;100.00;102229.59;10203298;28;20085;-69
2021/11/12 01:00:05;;;;;;;84.07;37.22;;;;;;;9.08;100.00;102235.34;10201742;28;20069;-69
2021/11/12 01:05:04;;;;;;;97.20;36.38;;;;;;;9.12;100.00;102241.06;10187505;28;20208;-69
2021/11/12 01:10:01;;;;;;;103.38;41.42;;;;;;;9.13;100.00;102248.19;10191295;28;20084;-69
2021/11/12 01:14:58;;;;;;;95.00;38.05;;;;;;;9.12;100.00;102241.91;10180940;28;20073;-69
2021/11/12 01:19:54;;;;;;;93.03;37.58;;;;;;;9.09;100.00;102241.63;10197573;28;20061;-69
2021/11/12 01:24:51;;;;;;;92.65;38.40;;;;;;;9.12;100.00;102232.88;10198046;28;20116;-68
2021/11/12 01:29:47;;;;;;;110.95;41.95;;;;;;;9.15;100.00;102232.38;10183510;28;20045;-69
2021/11/12 01:34:44;;;;;;;101.18;40.42;;;;;;;9.13;100.00;102226.34;10206283;28;20045;-69
2021/11/12 01:39:40;;;;;;;103.03;39.30;;;;;;;9.14;100.00;102206.16;10209294;28;20803;-69
2021/11/12 01:44:45;;;;;;;99.03;39.47;;;;;;;9.14;100.00;102208.88;10199695;28;20580;-68
2021/11/12 01:50:08;;;;;;;108.28;40.45;;;;;;;9.16;100.00;102201.25;10198310;28;20084;-69
2021/11/12 02:00:09;;;;;;;93.05;39.38;;;;;;;9.17;100.00;102183.81;10200250;28;20165;-69
2021/11/12 02:05:07;;;;;;;89.85;37.33;;;;;;;9.16;100.00;102190.34;10178575;28;20073;-69
2021/11/12 02:10:12;;;;;;;94.22;37.17;;;;;;;9.17;100.00;102195.53;10185339;28;20096;-70
2021/11/12 02:15:08;;;;;;;97.63;38.85;;;;;;;9.19;100.00;102192.50;10198099;28;20491;-68
2021/11/12 02:20:12;;;;;;;95.57;37.58;;;;;;;9.16;100.00;102187.59;10206168;28;20057;-69
2021/11/12 02:25:13;;;;;;;84.13;36.25;;;;;;;9.17;100.00;102178.34;10205755;28;20057;-69
2021/11/12 02:30:10;;;;;;;91.78;37.53;;;;;;;9.08;100.00;102174.53;10199528;28;20448;-69
2021/11/12 02:35:07;;;;;;;81.30;34.42;;;;;;;9.05;100.00;102160.31;10195148;28;20085;-69
2021/11/12 02:40:04;;;;;;;77.15;34.47;;;;;;;9.10;100.00;102161.41;10182873;28;20074;-69
2021/11/12 02:45:00;;;;;;;81.65;34.72;;;;;;;9.09;100.00;102159.78;10196221;28;20057;-69
2021/11/12 02:49:58;;;;;;;78.68;33.50;;;;;;;9.10;100.00;102154.06;10208500;28;20507;-69
2021/11/12 02:54:55;;;;;;;77.03;34.90;;;;;;;9.05;100.00;102154.88;10204599;28;20070;-69
2021/11/12 02:59:51;;;;;;;74.72;33.45;;;;;;;8.97;100.00;102158.13;10207717;28;20038;-69
2021/11/12 03:04:48;;;;;;;76.95;34.05;;;;;;;9.04;100.00;102152.41;10210651;28;20080;-69
2021/11/12 03:09:44;;;;;;;91.85;41.50;;;;;;;8.98;100.00;102137.13;10196795;28;20040;-69
2021/11/12 03:14:41;;;;;;;88.75;40.60;;;;;;;8.99;100.00;102136.03;10203705;28;20141;-69
2021/11/12 03:19:38;;;;;;;88.07;40.38;;;;;;;8.78;100.00;102132.47;10197896;28;20038;-70
2021/11/12 03:24:39;;;;;;;72.18;34.40;;;;;;;8.87;100.00;102133.59;10203149;28;20504;-69
2021/11/12 04:06:52;;;;;;;87.82;39.40;;;;;;;8.84;100.00;102109.56;10183658;28;20691;-69
2021/11/12 05:09:55;;;;;;;85.32;36.50;;;;;;;8.60;100.00;102082.81;10181249;28;20074;-68
2021/11/12 05:26:08;;;;;;;82.30;36.95;;;;;;;8.59;100.00;102103.00;10201284;28;20450;-68
2021/11/12 05:51:59;;;;;;;76.28;36.80;;;;;;;8.49;100.00;102064.81;10197332;28;20080;-69
2021/11/12 05:56:56;;;;;;;100.18;33.95;;;;;;;8.40;100.00;102056.38;10207791;28;20108;-68
2021/11/12 06:01:53;;;;;;;95.80;35.35;;;;;;;8.40;100.00;102050.06;10170842;28;20077;-69
2021/11/12 06:06:50;;;;;;;83.75;35.45;;;;;;;8.34;100.00;102034.78;10200464;28;20480;-69
2021/11/12 06:11:47;;;;;;;75.47;33.45;;;;;;;8.37;100.00;102031.50;10185872;28;20092;-69
2021/11/12 06:16:44;;;;;;;77.80;35.58;;;;;;;8.40;100.00;102033.72;10194801;28;20095;-68
2021/11/12 06:21:41;;;;;;;80.07;33.78;;;;;;;8.40;100.00;102022.81;10196567;28;20458;-69
2021/11/12 06:26:38;;;;;;;82.97;33.30;;;;;;;8.42;100.00;102026.09;10197640;28;20500;-69
2021/11/12 06:31:35;;;;;;;67.97;30.52;;;;;;;8.34;100.00;102019.25;10201956;28;20044;-69
2021/11/12 06:36:32;;;;;;;80.22;31.20;;;;;;;8.27;100.00;102007.00;10200281;28;20203;-69
2021/11/12 06:52:06;;;;;;;77.07;31.17;;;;;;;8.12;100.00;101984.09;10186101;28;20069;-69
2021/11/12 06:57:03;;;;;;;70.20;28.50;;;;;;;8.22;100.00;101999.63;10199655;28;20050;-69
2021/11/12 07:01:59;;;;;;;67.32;26.55;;;;;;;8.18;100.00;101996.59;10208933;28;20050;-68
2021/11/12 07:06:58;;;;;;;52.90;23.92;;;;;;;8.25;100.00;102003.72;10207429;28;20471;-69
2021/11/12 07:11:54;;;;;;;55.00;23.17;;;;;;;8.22;100.00;102011.34;10186636;28;20042;-68
2021/11/12 07:16:50;;;;;;;60.65;25.63;;;;;;;8.26;100.00;102027.13;10195429;28;20047;-69
2021/11/12 07:21:47;;;;;;;58.92;25.77;;;;;;;8.29;100.00;102016.53;10209801;28;20046;-69
2021/11/12 07:26:44;;;;;;;65.75;26.30;;;;;;;8.28;100.00;102008.63;10189352;28;20069;-68
2021/11/12 07:31:41;;;;;;;63.42;26.15;;;;;;;8.30;100.00;102006.44;10193586;28;20100;-68
2021/11/12 07:36:51;;;;;;;63.88;27.38;;;;;;;8.34;100.00;101992.00;10200745;28;20119;-69
2021/11/12 07:47:10;;;;;;;70.97;27.33;;;;;;;8.40;100.00;101990.13;10188268;28;20068;-68
2021/11/12 07:52:10;;;;;;;67.65;26.83;;;;;;;8.37;100.00;101977.00;10199261;28;20587;-69
2021/11/12 07:57:08;;;;;;;51.05;19.70;;;;;;;8.31;100.00;101964.47;10197116;28;20076;-68
2021/11/12 08:02:06;;;;;;;54.22;19.58;;;;;;;8.32;100.00;101971.56;10196037;28;20096;-70
2021/11/12 08:07:03;;;;;;;40.20;16.30;;;;;;;8.37;100.00;101985.19;10203690;28;20460;-68
2021/11/12 08:12:04;;;;;;;46.85;17.10;;;;;;;8.35;100.00;101966.38;10197615;28;20093;-69
2021/11/12 08:22:21;;;;;;;39.70;16.35;;;;;;;8.36;100.00;101964.50;10206661;28;20092;-68
2021/11/12 08:38:17;;;;;;;39.25;15.50;;;;;;;8.45;100.00;101943.81;10203916;28;20483;-69
2021/11/12 08:43:14;;;;;;;37.25;15.82;;;;;;;8.48;100.00;101948.69;10193870;28;20049;-69
2021/11/12 08:48:18;;;;;;;46.08;17.42;;;;;;;8.50;100.00;101946.53;10201003;28;20146;-69
2021/11/12 08:53:16;;;;;;;52.85;19.63;;;;;;;8.55;100.00;101932.06;10194310;28;20076;-69
2021/11/12 08:58:13;;;;;;;43.35;16.52;;;;;;;8.55;100.00;101924.69;10184391;28;20053;-69
2021/11/12 09:03:11;;;;;;;44.88;17.05;;;;;;;8.59;100.00;101914.88;10192206;28;20080;-69
2021/11/12 09:08:08;;;;;;;44.03;17.08;;;;;;;8.61;100.00;101909.97;10195709;28;20100;-69
2021/11/12 09:13:17;;;;;;;41.78;16.83;;;;;;;8.49;100.00;101912.16;10187176;28;20085;-69
2021/11/12 09:18:14;;;;;;;46.95;19.20;;;;;;;8.63;100.00;101915.97;10201357;28;20125;-69
2021/11/12 09:23:10;;;;;;;47.72;18.55;;;;;;;8.70;100.00;101906.69;10197726;28;20116;-69
2021/11/12 09:28:06;;;;;;;39.85;15.27;;;;;;;8.71;100.00;101909.13;10189728;28;20073;-69
2021/11/12 09:33:05;;;;;;;36.88;15.93;;;;;;;8.74;100.00;101905.03;10187348;28;20100;-69
2021/11/12 09:38:02;;;;;;;42.47;17.40;;;;;;;8.68;100.00;101903.41;10194926;28;20042;-68
2021/11/12 09:42:59;;;;;;;41.65;16.35;;;;;;;8.70;100.00;101893.03;10205556;28;20038;-69
2021/11/12 09:47:57;;;;;;;35.28;14.45;;;;;;;8.64;100.00;101903.97;10189472;28;20419;-69
2021/11/12 09:52:55;;;;;;;31.88;14.23;;;;;;;8.75;100.00;101909.38;10200477;28;20084;-69
2021/11/12 09:57:52;;;;;;;23.20;11.65;;;;;;;8.52;100.00;101900.72;10181404;28;20042;-69
2021/11/12 10:02:50;;;;;;;20.67;10.40;;;;;;;8.63;100.00;101886.00;10206739;28;20488;-69
2021/11/12 10:07:46;;;;;;;19.73;10.00;;;;;;;8.63;100.00;101879.69;10195232;28;20046;-69
2021/11/12 10:12:49;;;;;;;22.83;10.60;;;;;;;8.69;100.00;101880.53;10203566;28;20637;-69
2021/11/12 10:17:48;;;;;;;15.93;9.13;;;;;;;8.77;100.00;101871.75;10194255;28;20038;-67
2021/11/12 10:22:48;;;;;;;15.85;9.02;;;;;;;8.84;100.00;101864.94;10198901;28;20070;-69
2021/11/12 10:27:51;;;;;;;14.27;8.73;;;;;;;9.05;100.00;101873.84;10199367;28;20042;-69
2021/11/12 10:32:48;;;;;;;11.68;8.07;;;;;;;9.01;100.00;101870.03;10196306;28;20042;-69
2021/11/12 10:37:45;;;;;;;11.55;7.47;;;;;;;9.09;100.00;101859.66;10197446;28;20085;-69
2021/11/12 10:42:46;;;;;;;13.10;8.45;;;;;;;9.18;100.00;101857.97;10195606;28;20466;-69
2021/11/12 10:47:48;;;;;;;12.98;8.95;;;;;;;9.22;100.00;101859.03;10195861;28;20045;-68
2021/11/12 10:52:46;;;;;;;13.38;8.90;;;;;;;9.23;100.00;101849.75;10191488;28;20075;-69
2021/11/12 10:57:59;;;;;;;14.18;9.02;;;;;;;9.25;100.00;101853.00;10200421;28;20045;-69
2021/11/12 11:03:08;;;;;;;15.52;10.65;;;;;;;9.33;100.00;101848.88;10195923;28;20038;-69
2021/11/12 11:08:07;;;;;;;15.32;11.30;;;;;;;9.37;100.00;101839.84;10212170;28;20057;-69
2021/11/12 11:13:10;;;;;;;15.65;10.57;;;;;;;9.39;100.00;101815.81;10193421;28;20049;-69
2021/11/12 11:18:24;;;;;;;17.65;11.40;;;;;;;9.51;100.00;101817.38;10194964;28;20052;-69
2021/11/12 11:23:21;;;;;;;17.13;10.38;;;;;;;9.58;100.00;101806.94;10188644;28;20046;-68
2021/11/12 11:28:18;;;;;;;18.67;12.05;;;;;;;9.68;100.00;101796.78;10178617;28;20104;-69
2021/11/12 11:33:16;;;;;;;18.13;11.77;;;;;;;9.77;100.00;101787.94;10190014;28;20084;-70
2021/11/12 11:38:16;;;;;;;16.77;10.73;;;;;;;9.83;100.00;101765.78;10190571;28;20105;-68
2021/11/12 11:43:13;;;;;;;17.33;10.48;;;;;;;9.83;100.00;101768.50;10190284;28;20492;-69
2021/11/12 11:48:11;;;;;;;19.73;11.05;;;;;;;9.76;100.00;101762.56;10187771;28;20045;-69
2021/11/12 11:53:27;;;;;;;19.42;11.32;;;;;;;9.69;100.00;101748.44;10189826;28;20054;-69
2021/11/12 11:58:31;;;;;;;16.20;9.80;;;;;;;9.60;100.00;101733.75;10191762;28;20092;-69
2021/11/12 12:03:31;;;;;;;19.02;11.07;;;;;;;9.56;100.00;101740.88;10212999;28;20050;-69
2021/11/12 12:08:27;;;;;;;17.27;9.32;;;;;;;9.51;100.00;101719.09;10197286;28;20531;-68
2021/11/12 12:13:27;;;;;;;22.13;10.85;;;;;;;9.52;100.00;101726.19;10197039;28;20589;-69
2021/11/12 12:18:26;;;;;;;16.67;10.60;;;;;;;9.48;100.00;101710.38;10197278;28;20099;-69
2021/11/12 13:22:16;;;;;;;15.88;8.38;;;;;;;9.88;100.00;101606.47;10188540;28;21115;-68
2021/11/12 13:27:12;;;;;;;17.55;9.40;;;;;;;9.73;100.00;101607.47;10192684;28;20419;-68
2021/11/12 13:32:09;;;;;;;14.07;8.70;;;;;;;9.68;100.00;101604.81;10190192;28;20080;-69
2021/11/12 13:37:23;;;;;;;14.45;7.90;;;;;;;9.64;100.00;101592.84;10192918;28;20459;-69
2021/11/12 13:42:19;;;;;;;11.60;6.68;;;;;;;9.59;100.00;101582.78;10186444;28;20037;-68
2021/11/12 13:47:21;;;;;;;11.38;6.70;;;;;;;9.53;100.00;101592.13;10178251;28;20088;-69
2021/11/12 13:52:28;;;;;;;10.93;6.90;;;;;;;9.46;100.00;101570.63;10192095;28;20077;-69
2021/11/12 13:57:27;;;;;;;9.10;4.75;;;;;;;9.38;100.00;101570.47;10174486;28;20053;-69
2021/11/12 14:02:25;;;;;;;7.93;4.05;;;;;;;9.33;100.00;101554.94;10183449;28;20229;-69
2021/11/12 14:07:23;;;;;;;6.22;3.45;;;;;;;9.25;99.57;101559.09;10185969;28;20136;-69
2021/11/12 14:12:19;;;;;;;8.95;3.60;;;;;;;9.26;98.68;101570.84;10179501;28;20499;-68
2021/11/12 14:17:25;;;;;;;6.55;3.15;;;;;;;9.15;96.67;101564.66;10183023;28;20081;-69
2021/11/12 14:22:38;;;;;;;6.97;3.63;;;;;;;9.10;95.62;101561.16;10188168;28;20791;-69
2021/11/12 14:38:28;;;;;;;10.35;5.28;;;;;;;9.02;93.93;101527.94;10181656;28;20084;-69
2021/11/12 14:53:52;;;;;;;10.30;6.63;;;;;;;8.98;93.28;101521.47;10191980;28;20046;-69
2021/11/12 14:58:57;;;;;;;12.77;7.40;;;;;;;8.97;92.91;101519.81;10191604;28;20149;-68
2021/11/12 15:03:53;;;;;;;10.52;6.07;;;;;;;8.89;91.51;101490.47;10189405;28;20072;-69
2021/11/12 15:08:54;;;;;;;11.88;7.15;;;;;;;8.82;90.88;101496.25;10195332;28;20050;-69
2021/11/12 15:13:54;;;;;;;10.27;7.68;;;;;;;8.80;90.32;101497.63;10197486;28;20038;-69
2021/11/12 15:18:55;;;;;;;10.70;7.72;;;;;;;8.78;90.89;101499.81;10191299;28;20046;-69
2021/11/12 15:24:01;;;;;;;12.07;8.45;;;;;;;8.72;90.31;101490.06;10200452;28;20088;-69
2021/11/12 15:34:13;;;;;;;11.73;7.60;;;;;;;8.67;89.86;101476.47;10186742;28;20080;-68
2021/11/12 15:39:12;;;;;;;13.32;8.60;;;;;;;8.70;90.94;101467.72;10188011;28;20572;-69
2021/11/12 15:44:18;;;;;;;13.80;8.90;;;;;;;8.66;89.86;101458.47;10186662;28;20108;-69
2021/11/12 15:49:23;;;;;;;12.73;9.05;;;;;;;8.59;90.11;101450.66;10187596;28;20073;-68
2021/11/12 15:59:57;;;;;;;13.23;9.63;;;;;;;8.46;90.62;101426.78;10180455;28;20107;-68
2021/11/12 16:10:30;;;;;;;14.85;9.95;;;;;;;8.21;91.08;101394.00;10190291;28;20404;-69
2021/11/12 16:15:43;;;;;;;14.20;10.25;;;;;;;8.11;91.49;101383.16;10177531;28;20080;-69
2021/11/12 16:21:04;;;;;;;16.20;10.93;;;;;;;8.02;91.27;101390.31;10190938;28;20049;-68
2021/11/12 16:26:02;;;;;;;15.30;10.93;;;;;;;7.98;91.33;101391.97;10182437;28;20476;-69
2021/11/12 16:31:02;;;;;;;18.98;12.57;;;;;;;7.86;91.40;101402.41;10192913;28;20124;-69
2021/11/12 16:36:04;;;;;;;18.67;12.77;;;;;;;7.85;91.94;101400.81;10184557;28;20058;-69
2021/11/12 17:06:46;;;;;;;25.00;17.92;;;;;;;7.47;91.66;101427.66;10192144;28;20058;-69
2021/11/12 17:48:21;;;;;;;32.95;20.88;;;;;;;7.30;93.76;101430.75;10180011;28;20046;-68
2021/11/12 18:03:36;;;;;;;33.38;22.58;;;;;;;7.27;93.34;101385.06;10186639;28;20089;-68
2021/11/12 18:08:59;;;;;;;31.98;21.13;;;;;;;7.23;94.03;101390.25;10188290;28;20100;-68
2021/11/12 18:24:58;;;;;;;34.63;22.17;;;;;;;7.08;94.09;101349.53;10181063;28;20141;-69
2021/11/12 21:50:32;;;;;;;57.13;30.58;;;;;;;5.95;100.00;101202.38;10183224;28;20065;-67
2021/11/12 21:55:28;;;;;;;54.17;29.48;;;;;;;5.95;100.00;101197.75;10180619;28;20096;-67
2021/11/12 22:00:26;;;;;;;59.30;31.05;;;;;;;5.97;100.00;101190.16;10180561;28;20077;-67
2021/11/12 22:05:24;;;;;;;54.85;28.80;;;;;;;5.94;100.00;101190.72;10191066;28;20614;-69
2021/11/12 22:10:20;;;;;;;58.03;30.92;;;;;;;5.94;100.00;101193.41;10195025;28;20447;-68
2021/11/12 22:15:17;;;;;;;57.05;31.20;;;;;;;5.87;100.00;101184.69;10184872;28;20103;-67
2021/11/12 22:20:16;;;;;;;57.25;32.03;;;;;;;5.82;100.00;101182.00;10199185;28;20080;-67
2021/11/12 22:25:13;;;;;;;61.85;30.80;;;;;;;5.76;100.00;101183.13;10165172;28;20046;-67
2021/11/12 22:30:10;;;;;;;61.88;32.70;;;;;;;5.76;100.00;101181.22;10177472;28;20089;-68
2021/11/12 22:35:08;;;;;;;59.53;30.58;;;;;;;5.79;100.00;101185.28;10182540;28;20050;-68
2021/11/12 22:40:06;;;;;;;53.90;28.85;;;;;;;5.73;100.00;101181.72;10185996;28;20120;-68
2021/11/12 22:45:04;;;;;;;56.35;29.92;;;;;;;5.65;100.00;101180.41;10181842;28;20046;-68
2021/11/12 22:50:03;;;;;;;60.70;29.45;;;;;;;5.67;100.00;101175.50;10182376;28;20096;-68
2021/11/12 22:55:00;;;;;;;56.95;29.52;;;;;;;5.67;100.00;101167.38;10184072;28;20144;-67
2021/11/12 22:59:56;;;;;;;60.70;30.70;;;;;;;5.61;100.00;101163.03;10182780;28;20468;-69
2021/11/12 23:04:53;;;;;;;60.28;31.30;;;;;;;5.62;100.00;101156.53;10195784;28;20124;-67
2021/11/12 23:09:49;;;;;;;64.95;31.15;;;;;;;5.59;100.00;101143.53;10207716;28;20092;-68
2021/11/12 23:14:46;;;;;;;62.10;31.38;;;;;;;5.61;100.00;101138.63;10179108;28;20088;-68
2021/11/12 23:19:42;;;;;;;66.15;33.17;;;;;;;5.62;100.00;101123.97;10188661;28;20046;-68
2021/11/12 23:24:39;;;;;;;67.78;33.33;;;;;;;5.59;100.00;101113.69;10183029;28;20073;-67
2021/11/12 23:29:36;;;;;;;67.88;32.63;;;;;;;5.60;100.00;101114.50;10192822;28;20049;-67
2021/11/12 23:34:32;;;;;;;64.25;32.20;;;;;;;5.66;100.00;101103.38;10185777;28;20100;-68
2021/11/12 23:39:29;;;;;;;67.53;34.78;;;;;;;5.62;100.00;101107.72;10189597;28;20052;-67
2021/11/12 23:44:25;;;;;;;65.80;33.80;;;;;;;5.66;100.00;101111.50;10192308;28;20104;-68
2021/11/12 23:49:22;;;;;;;70.40;33.95;;;;;;;5.67;100.00;101110.41;10195961;28;20073;-68
2021/11/12 23:54:18;;;;;;;70.90;33.78;;;;;;;5.63;100.00;101114.75;10193879;28;20061;-67
2021/11/12 23:59:15;;;;;;;61.92;30.77;;;;;;;5.61;100.00;101110.69;10184489;28;20074;-67
